SYN001 ESGG-EKCH
Flight info
| Callsign | SYN001 |
|---|---|
| Flight time | 0h 40m |
| Altitude | 19000 |
| Route | TOPLA L996 ERNOV |
| Aircraft | BCS3/M-SBDE2E3GIRWXY/LB1 |
Departure
| Time | 2026-05-04 19:15 |
|---|---|
| Airport | Göteborg Landvetter Airport (ESGG) |
Arrival
| Time | 2026-05-04 19:55 |
|---|---|
| Airport | Copenhagen Kastrup Airport (EKCH) |
| Time | Latitude | Longitude | Altitude | Speed | Heading |
|---|---|---|---|---|---|
| 2026-05-04 18:54 | 57.66976 | 12.29485 | 512 ft | 0 kts | 116° |
| 2026-05-04 19:07 | 57.66980 | 12.29471 | 512 ft | 2 kts | 116° |
| 2026-05-04 19:08 | 57.66988 | 12.29443 | 512 ft | 2 kts | 132° |
| 2026-05-04 19:08 | 57.67001 | 12.29423 | 512 ft | 2 kts | 160° |
| 2026-05-04 19:08 | 57.67017 | 12.29417 | 513 ft | 2 kts | 186° |
| 2026-05-04 19:08 | 57.67032 | 12.29425 | 513 ft | 2 kts | 207° |
| 2026-05-04 19:09 | 57.67035 | 12.29427 | 513 ft | 0 kts | 207° |
| 2026-05-04 19:11 | 57.67026 | 12.29418 | 513 ft | 2 kts | 208° |
| 2026-05-04 19:11 | 57.67003 | 12.29390 | 512 ft | 7 kts | 216° |
| 2026-05-04 19:12 | 57.66986 | 12.29257 | 512 ft | 7 kts | 295° |
| 2026-05-04 19:12 | 57.67072 | 12.29211 | 513 ft | 8 kts | 21° |
| 2026-05-04 19:12 | 57.67141 | 12.29272 | 513 ft | 15 kts | 25° |
| 2026-05-04 19:13 | 57.67255 | 12.29385 | 514 ft | 22 kts | 29° |
| 2026-05-04 19:13 | 57.67380 | 12.29477 | 516 ft | 9 kts | 357° |
| 2026-05-04 19:13 | 57.67423 | 12.29417 | 516 ft | 8 kts | 306° |
| 2026-05-04 19:13 | 57.67449 | 12.29322 | 516 ft | 9 kts | 295° |
| 2026-05-04 19:14 | 57.67460 | 12.29204 | 515 ft | 10 kts | 265° |
| 2026-05-04 19:14 | 57.67438 | 12.29066 | 514 ft | 12 kts | 235° |
| 2026-05-04 19:14 | 57.67389 | 12.28982 | 514 ft | 3 kts | 212° |
| 2026-05-04 19:14 | 57.67359 | 12.28951 | 514 ft | 9 kts | 208° |
| 2026-05-04 19:15 | 57.67106 | 12.28723 | 514 ft | 77 kts | 205° |
| 2026-05-04 19:15 | 57.66404 | 12.28083 | 525 ft | 143 kts | 209° |
| 2026-05-04 19:15 | 57.65494 | 12.27308 | 1360 ft | 145 kts | 209° |
| 2026-05-04 19:15 | 57.64566 | 12.26514 | 2297 ft | 148 kts | 214° |
| 2026-05-04 19:16 | 57.63633 | 12.25657 | 3275 ft | 150 kts | 215° |
| 2026-05-04 19:16 | 57.62713 | 12.24781 | 4200 ft | 150 kts | 215° |
| 2026-05-04 19:16 | 57.61826 | 12.23947 | 4801 ft | 132 kts | 216° |
| 2026-05-04 19:16 | 57.60970 | 12.23459 | 4975 ft | 130 kts | 198° |
| 2026-05-04 19:17 | 57.60069 | 12.23280 | 4984 ft | 133 kts | 198° |
| 2026-05-04 19:17 | 57.59104 | 12.22996 | 4994 ft | 147 kts | 201° |
| 2026-05-04 19:17 | 57.58080 | 12.22506 | 5074 ft | 155 kts | 207° |
| 2026-05-04 19:17 | 57.57051 | 12.21739 | 5518 ft | 149 kts | 210° |
| 2026-05-04 19:18 | 57.56229 | 12.21290 | 5276 ft | 156 kts | 204° |
| 2026-05-04 19:18 | 57.55130 | 12.20732 | 5101 ft | 163 kts | 204° |
| 2026-05-04 19:18 | 57.54000 | 12.20140 | 4980 ft | 183 kts | 203° |
| 2026-05-04 19:18 | 57.52549 | 12.20056 | 5022 ft | 233 kts | 170° |
| 2026-05-04 19:19 | 57.51026 | 12.21163 | 5052 ft | 245 kts | 162° |
| 2026-05-04 19:19 | 57.49408 | 12.22475 | 6092 ft | 255 kts | 161° |
| 2026-05-04 19:19 | 57.47796 | 12.23732 | 7468 ft | 247 kts | 166° |
| 2026-05-04 19:19 | 57.46193 | 12.24661 | 8831 ft | 238 kts | 173° |
| 2026-05-04 19:20 | 57.44562 | 12.25358 | 9925 ft | 241 kts | 177° |
| 2026-05-04 19:20 | 57.42896 | 12.25931 | 10952 ft | 244 kts | 179° |
| 2026-05-04 19:20 | 57.41209 | 12.26442 | 11941 ft | 248 kts | 180° |
| 2026-05-04 19:20 | 57.39488 | 12.26923 | 12953 ft | 251 kts | 181° |
| 2026-05-04 19:21 | 57.37746 | 12.27398 | 13908 ft | 254 kts | 181° |
| 2026-05-04 19:21 | 57.35976 | 12.27878 | 14719 ft | 259 kts | 181° |
| 2026-05-04 19:21 | 57.34174 | 12.28363 | 15520 ft | 264 kts | 181° |
| 2026-05-04 19:21 | 57.32346 | 12.28854 | 16295 ft | 269 kts | 181° |
| 2026-05-04 19:22 | 57.30479 | 12.29355 | 17099 ft | 273 kts | 180° |
| 2026-05-04 19:22 | 57.28609 | 12.29858 | 17850 ft | 277 kts | 180° |
| 2026-05-04 19:22 | 57.26690 | 12.30371 | 18521 ft | 281 kts | 180° |
| 2026-05-04 19:22 | 57.24711 | 12.30895 | 18871 ft | 295 kts | 180° |
| 2026-05-04 19:23 | 57.22659 | 12.31441 | 18933 ft | 304 kts | 180° |
| 2026-05-04 19:23 | 57.20479 | 12.32009 | 18930 ft | 329 kts | 179° |
| 2026-05-04 19:23 | 57.18120 | 12.32631 | 18924 ft | 353 kts | 178° |
| 2026-05-04 19:23 | 57.15615 | 12.33307 | 18920 ft | 373 kts | 178° |
| 2026-05-04 19:24 | 57.13061 | 12.34030 | 18905 ft | 366 kts | 178° |
| 2026-05-04 19:24 | 57.10584 | 12.34669 | 18906 ft | 363 kts | 179° |
| 2026-05-04 19:24 | 57.08057 | 12.35289 | 18906 ft | 368 kts | 179° |
| 2026-05-04 19:24 | 57.05529 | 12.35911 | 18916 ft | 365 kts | 178° |
| 2026-05-04 19:25 | 57.03015 | 12.36531 | 18914 ft | 365 kts | 178° |
| 2026-05-04 19:25 | 57.00489 | 12.37153 | 18913 ft | 365 kts | 178° |
| 2026-05-04 19:25 | 56.97973 | 12.37773 | 18919 ft | 365 kts | 178° |
| 2026-05-04 19:25 | 56.95456 | 12.38394 | 18912 ft | 364 kts | 178° |
| 2026-05-04 19:26 | 56.92940 | 12.39013 | 18918 ft | 364 kts | 178° |
| 2026-05-04 19:26 | 56.90456 | 12.39625 | 18919 ft | 364 kts | 178° |
| 2026-05-04 19:26 | 56.87943 | 12.40243 | 18921 ft | 364 kts | 178° |
| 2026-05-04 19:26 | 56.85429 | 12.40860 | 18926 ft | 364 kts | 178° |
| 2026-05-04 19:27 | 56.82943 | 12.41474 | 18924 ft | 355 kts | 178° |
| 2026-05-04 19:27 | 56.80437 | 12.42083 | 18934 ft | 373 kts | 178° |
| 2026-05-04 19:27 | 56.77813 | 12.42716 | 18932 ft | 381 kts | 178° |
| 2026-05-04 19:27 | 56.75219 | 12.43352 | 18930 ft | 381 kts | 178° |
| 2026-05-04 19:28 | 56.72582 | 12.43997 | 18930 ft | 384 kts | 178° |
| 2026-05-04 19:28 | 56.69932 | 12.44646 | 18931 ft | 382 kts | 178° |
| 2026-05-04 19:28 | 56.67287 | 12.45291 | 18932 ft | 383 kts | 178° |
| 2026-05-04 19:28 | 56.64640 | 12.45936 | 18930 ft | 383 kts | 178° |
| 2026-05-04 19:29 | 56.61997 | 12.46579 | 18930 ft | 383 kts | 178° |
| 2026-05-04 19:29 | 56.59357 | 12.47220 | 18932 ft | 383 kts | 178° |
| 2026-05-04 19:29 | 56.56738 | 12.47857 | 18673 ft | 377 kts | 178° |
| 2026-05-04 19:29 | 56.54115 | 12.48491 | 18049 ft | 380 kts | 178° |
| 2026-05-04 19:30 | 56.51512 | 12.49122 | 17504 ft | 372 kts | 178° |
| 2026-05-04 19:30 | 56.49010 | 12.49735 | 17038 ft | 347 kts | 178° |
| 2026-05-04 19:30 | 56.46712 | 12.50304 | 16615 ft | 322 kts | 178° |
| 2026-05-04 19:30 | 56.44483 | 12.50837 | 16203 ft | 327 kts | 178° |
| 2026-05-04 19:31 | 56.42256 | 12.51369 | 15761 ft | 317 kts | 179° |
| 2026-05-04 19:31 | 56.40113 | 12.51882 | 15367 ft | 314 kts | 179° |
| 2026-05-04 19:31 | 56.37944 | 12.52395 | 14950 ft | 314 kts | 179° |
| 2026-05-04 19:31 | 56.35778 | 12.52908 | 14530 ft | 312 kts | 179° |
| 2026-05-04 19:32 | 56.33636 | 12.53417 | 14118 ft | 309 kts | 179° |
| 2026-05-04 19:32 | 56.31510 | 12.53921 | 13709 ft | 308 kts | 179° |
| 2026-05-04 19:32 | 56.29393 | 12.54423 | 13275 ft | 305 kts | 179° |
| 2026-05-04 19:32 | 56.27314 | 12.54916 | 12882 ft | 303 kts | 178° |
| 2026-05-04 19:33 | 56.25203 | 12.55414 | 12477 ft | 303 kts | 178° |
| 2026-05-04 19:33 | 56.23129 | 12.55904 | 12074 ft | 297 kts | 178° |
| 2026-05-04 19:33 | 56.21123 | 12.56384 | 11693 ft | 285 kts | 178° |
| 2026-05-04 19:33 | 56.19189 | 12.56844 | 11329 ft | 276 kts | 178° |
| 2026-05-04 19:34 | 56.17304 | 12.57201 | 10957 ft | 267 kts | 188° |
| 2026-05-04 19:34 | 56.15527 | 12.56691 | 10764 ft | 259 kts | 199° |
| 2026-05-04 19:34 | 56.13768 | 12.55909 | 10596 ft | 261 kts | 200° |
| 2026-05-04 19:34 | 56.12014 | 12.55090 | 10410 ft | 260 kts | 200° |
| 2026-05-04 19:35 | 56.10273 | 12.54257 | 10223 ft | 257 kts | 204° |
| 2026-05-04 19:35 | 56.08850 | 12.52508 | 10076 ft | 246 kts | 229° |
| 2026-05-04 19:35 | 56.07655 | 12.50300 | 9915 ft | 243 kts | 230° |
| 2026-05-04 19:35 | 56.06487 | 12.48113 | 9215 ft | 247 kts | 230° |
| 2026-05-04 19:36 | 56.05306 | 12.45887 | 8641 ft | 246 kts | 230° |
| 2026-05-04 19:36 | 56.04138 | 12.43676 | 8121 ft | 242 kts | 230° |
| 2026-05-04 19:36 | 56.02985 | 12.41488 | 7615 ft | 240 kts | 230° |
| 2026-05-04 19:36 | 56.01844 | 12.39318 | 7115 ft | 239 kts | 230° |
| 2026-05-04 19:37 | 56.00726 | 12.37188 | 6615 ft | 237 kts | 230° |
| 2026-05-04 19:37 | 55.99597 | 12.35033 | 6122 ft | 236 kts | 230° |
| 2026-05-04 19:37 | 55.98477 | 12.32886 | 5602 ft | 235 kts | 230° |
| 2026-05-04 19:37 | 55.97368 | 12.30753 | 5089 ft | 234 kts | 230° |
| 2026-05-04 19:38 | 55.96263 | 12.28622 | 4581 ft | 232 kts | 230° |
| 2026-05-04 19:38 | 55.95185 | 12.26526 | 4103 ft | 232 kts | 230° |
| 2026-05-04 19:38 | 55.94107 | 12.24424 | 3945 ft | 228 kts | 230° |
| 2026-05-04 19:38 | 55.93025 | 12.22312 | 3936 ft | 233 kts | 230° |
| 2026-05-04 19:39 | 55.91933 | 12.20173 | 3940 ft | 232 kts | 230° |
| 2026-05-04 19:39 | 55.91213 | 12.18763 | 3943 ft | 232 kts | 230° |
| 2026-05-04 19:39 | 55.90121 | 12.16630 | 3946 ft | 232 kts | 230° |
| 2026-05-04 19:39 | 55.89033 | 12.14501 | 3945 ft | 233 kts | 230° |
| 2026-05-04 19:40 | 55.87587 | 12.11668 | 3952 ft | 233 kts | 230° |
| 2026-05-04 19:40 | 55.86850 | 12.10226 | 3953 ft | 233 kts | 230° |
| 2026-05-04 19:40 | 55.85704 | 12.08185 | 3936 ft | 236 kts | 216° |
| 2026-05-04 19:40 | 55.84120 | 12.07405 | 3959 ft | 242 kts | 182° |
| 2026-05-04 19:41 | 55.82425 | 12.07526 | 3967 ft | 245 kts | 180° |
| 2026-05-04 19:41 | 55.80725 | 12.07688 | 3959 ft | 244 kts | 180° |
| 2026-05-04 19:41 | 55.79027 | 12.07849 | 3953 ft | 244 kts | 180° |
| 2026-05-04 19:41 | 55.77325 | 12.08016 | 3957 ft | 245 kts | 180° |
| 2026-05-04 19:42 | 55.75623 | 12.08183 | 3962 ft | 245 kts | 180° |
| 2026-05-04 19:42 | 55.73953 | 12.08694 | 3950 ft | 249 kts | 157° |
| 2026-05-04 19:42 | 55.72679 | 12.10769 | 3968 ft | 255 kts | 120° |
| 2026-05-04 19:42 | 55.72191 | 12.13779 | 3986 ft | 256 kts | 95° |
| 2026-05-04 19:43 | 55.72071 | 12.16889 | 3968 ft | 257 kts | 92° |
| 2026-05-04 19:43 | 55.71978 | 12.20063 | 3959 ft | 256 kts | 92° |
| 2026-05-04 19:43 | 55.71887 | 12.23206 | 3960 ft | 256 kts | 92° |
| 2026-05-04 19:43 | 55.71795 | 12.26370 | 3960 ft | 256 kts | 92° |
| 2026-05-04 19:44 | 55.71702 | 12.29523 | 3957 ft | 256 kts | 92° |
| 2026-05-04 19:44 | 55.71608 | 12.32689 | 3961 ft | 256 kts | 92° |
| 2026-05-04 19:44 | 55.71514 | 12.35835 | 3956 ft | 256 kts | 93° |
| 2026-05-04 19:44 | 55.71418 | 12.39002 | 3957 ft | 256 kts | 93° |
| 2026-05-04 19:45 | 55.71322 | 12.42151 | 3963 ft | 257 kts | 93° |
| 2026-05-04 19:45 | 55.71224 | 12.45316 | 3959 ft | 256 kts | 93° |
| 2026-05-04 19:45 | 55.71128 | 12.48482 | 3961 ft | 257 kts | 91° |
| 2026-05-04 19:45 | 55.71447 | 12.51560 | 3970 ft | 254 kts | 69° |
| 2026-05-04 19:46 | 55.72125 | 12.54456 | 3968 ft | 254 kts | 63° |
| 2026-05-04 19:46 | 55.72882 | 12.57298 | 3966 ft | 254 kts | 62° |
| 2026-05-04 19:46 | 55.73656 | 12.60069 | 3967 ft | 254 kts | 61° |
| 2026-05-04 19:46 | 55.74451 | 12.62870 | 3962 ft | 254 kts | 59° |
| 2026-05-04 19:47 | 55.75549 | 12.65283 | 3967 ft | 250 kts | 41° |
| 2026-05-04 19:47 | 55.76770 | 12.67431 | 3597 ft | 247 kts | 51° |
| 2026-05-04 19:47 | 55.77627 | 12.70124 | 3044 ft | 248 kts | 60° |
| 2026-05-04 19:47 | 55.78399 | 12.72802 | 2942 ft | 243 kts | 60° |
| 2026-05-04 19:48 | 55.79142 | 12.75396 | 2925 ft | 225 kts | 60° |
| 2026-05-04 19:48 | 55.79829 | 12.77807 | 2940 ft | 217 kts | 60° |
| 2026-05-04 19:48 | 55.80513 | 12.80214 | 2950 ft | 218 kts | 60° |
| 2026-05-04 19:48 | 55.81192 | 12.82611 | 2954 ft | 217 kts | 60° |
| 2026-05-04 19:49 | 55.81867 | 12.84983 | 2955 ft | 217 kts | 60° |
| 2026-05-04 19:49 | 55.82544 | 12.87387 | 2947 ft | 218 kts | 63° |
| 2026-05-04 19:49 | 55.82743 | 12.90056 | 2948 ft | 221 kts | 100° |
| 2026-05-04 19:49 | 55.82062 | 12.92456 | 2973 ft | 219 kts | 137° |
| 2026-05-04 19:50 | 55.80757 | 12.93709 | 2980 ft | 214 kts | 176° |
| 2026-05-04 19:50 | 55.79372 | 12.93171 | 3007 ft | 204 kts | 214° |
| 2026-05-04 19:50 | 55.78228 | 12.91693 | 2998 ft | 203 kts | 223° |
| 2026-05-04 19:50 | 55.77176 | 12.90105 | 3004 ft | 201 kts | 224° |
| 2026-05-04 19:51 | 55.76117 | 12.88445 | 2988 ft | 203 kts | 225° |
| 2026-05-04 19:51 | 55.75067 | 12.86788 | 2989 ft | 202 kts | 225° |
| 2026-05-04 19:51 | 55.74021 | 12.85128 | 2980 ft | 197 kts | 225° |
| 2026-05-04 19:51 | 55.73037 | 12.83567 | 2871 ft | 186 kts | 225° |
| 2026-05-04 19:52 | 55.72076 | 12.82032 | 2624 ft | 184 kts | 225° |
| 2026-05-04 19:52 | 55.71133 | 12.80530 | 2384 ft | 181 kts | 226° |
| 2026-05-04 19:52 | 55.70212 | 12.79067 | 2135 ft | 179 kts | 226° |
| 2026-05-04 19:52 | 55.69320 | 12.77505 | 1890 ft | 181 kts | 232° |
| 2026-05-04 19:53 | 55.68448 | 12.75902 | 1632 ft | 178 kts | 227° |
| 2026-05-04 19:53 | 55.67529 | 12.74472 | 1370 ft | 173 kts | 224° |
| 2026-05-04 19:53 | 55.66639 | 12.73123 | 1141 ft | 163 kts | 225° |
| 2026-05-04 19:53 | 55.65825 | 12.71852 | 913 ft | 150 kts | 225° |
| 2026-05-04 19:54 | 55.65073 | 12.70679 | 703 ft | 139 kts | 224° |
| 2026-05-04 19:54 | 55.64349 | 12.69562 | 532 ft | 138 kts | 224° |
| 2026-05-04 19:54 | 55.63627 | 12.68443 | 341 ft | 138 kts | 224° |
| 2026-05-04 19:54 | 55.62907 | 12.67326 | 156 ft | 137 kts | 223° |
| 2026-05-04 19:55 | 55.62195 | 12.66230 | 27 ft | 130 kts | 224° |
| 2026-05-04 19:55 | 55.61686 | 12.65434 | 21 ft | 71 kts | 221° |
| 2026-05-04 19:55 | 55.61385 | 12.64971 | 24 ft | 53 kts | 221° |
| 2026-05-04 19:55 | 55.61183 | 12.64734 | 23 ft | 10 kts | 180° |
| 2026-05-04 19:56 | 55.61127 | 12.64756 | 25 ft | 9 kts | 165° |
| 2026-05-04 19:56 | 55.61079 | 12.64779 | 23 ft | 0 kts | 166° |
| 2026-05-04 19:56 | 55.61077 | 12.64779 | 25 ft | 1 kts | 167° |
| 2026-05-04 19:56 | 55.61060 | 12.64774 | 22 ft | 4 kts | 202° |
| 2026-05-04 19:57 | 55.61046 | 12.64768 | 22 ft | 0 kts | 165° |
| 2026-05-04 19:57 | 55.61024 | 12.64780 | 22 ft | 11 kts | 165° |
| 2026-05-04 19:57 | 55.60971 | 12.64757 | 22 ft | 3 kts | 170° |
| 2026-05-04 19:57 | 55.60960 | 12.64782 | 24 ft | 1 kts | 110° |
| 2026-05-04 19:58 | 55.60964 | 12.64800 | 22 ft | 4 kts | 60° |
| 2026-05-04 19:58 | 55.60983 | 12.64819 | 22 ft | 1 kts | 2° |
| 2026-05-04 19:58 | 55.61002 | 12.64811 | 22 ft | 5 kts | 347° |
| 2026-05-04 19:58 | 55.61057 | 12.64791 | 22 ft | 5 kts | 351° |
| 2026-05-04 19:59 | 55.61059 | 12.64790 | 22 ft | 0 kts | 351° |
| 2026-05-04 20:01 | 55.61062 | 12.64789 | 22 ft | 2 kts | 350° |
| 2026-05-04 20:01 | 55.61178 | 12.64755 | 25 ft | 25 kts | 351° |
| 2026-05-04 20:01 | 55.61353 | 12.64694 | 23 ft | 26 kts | 347° |
| 2026-05-04 20:02 | 55.61538 | 12.64624 | 23 ft | 27 kts | 349° |
| 2026-05-04 20:02 | 55.61661 | 12.64584 | 26 ft | 0 kts | 349° |
| 2026-05-04 20:02 | 55.61668 | 12.64583 | 26 ft | 3 kts | 356° |
| 2026-05-04 20:03 | 55.61736 | 12.64636 | 23 ft | 17 kts | 34° |
| 2026-05-04 20:03 | 55.61846 | 12.64763 | 21 ft | 21 kts | 32° |
| 2026-05-04 20:03 | 55.61975 | 12.64908 | 21 ft | 22 kts | 32° |
| 2026-05-04 20:03 | 55.62100 | 12.65053 | 24 ft | 16 kts | 29° |
| 2026-05-04 20:04 | 55.62115 | 12.65070 | 27 ft | 0 kts | 32° |
| 2026-05-04 20:05 | 55.62137 | 12.65094 | 25 ft | 15 kts | 32° |
| 2026-05-04 20:05 | 55.62217 | 12.65182 | 27 ft | 0 kts | 32° |
| 2026-05-04 20:06 | 55.62222 | 12.65185 | 26 ft | 0 kts | 13° |
| 2026-05-04 20:06 | 55.62233 | 12.65174 | 24 ft | 9 kts | 326° |
| 2026-05-04 20:06 | 55.62280 | 12.65069 | 24 ft | 13 kts | 305° |
| 2026-05-04 20:07 | 55.62328 | 12.64934 | 26 ft | 13 kts | 299° |
| 2026-05-04 20:07 | 55.62367 | 12.64826 | 26 ft | 0 kts | 304° |
| 2026-05-04 20:07 | 55.62367 | 12.64824 | 26 ft | 1 kts | 304° |
| 2026-05-04 20:07 | 55.62380 | 12.64789 | 26 ft | 6 kts | 304° |
| 2026-05-04 20:08 | 55.62423 | 12.64676 | 26 ft | 18 kts | 304° |
| 2026-05-04 20:08 | 55.62501 | 12.64469 | 22 ft | 22 kts | 301° |
| 2026-05-04 20:08 | 55.62581 | 12.64248 | 24 ft | 22 kts | 303° |
| 2026-05-04 20:08 | 55.62640 | 12.64091 | 25 ft | 8 kts | 303° |
| 2026-05-04 20:09 | 55.62668 | 12.64055 | 26 ft | 4 kts | 345° |
| 2026-05-04 20:09 | 55.62695 | 12.64065 | 27 ft | 4 kts | 31° |
| 2026-05-04 20:09 | 55.62714 | 12.64086 | 30 ft | 0 kts | 32° |